Moron de la Frontera, Spain
Current Conditions -  °F | °C
As of 6:00 PM on Friday 24 Oct 2014 (Local Time) from LEMO Reporting Station
Clear Clear  
Wind Chill: 88°   Ceiling: Unl
Heat Index: 88°   Visibility: 6mi
Dew Point: 46°   Wind: 5mph
Humidity: 24%   Direction: NA
Pressure: 29.91"   Gusts: NA
Location:  37.12°N, 5.45°W
Report Text: LEMO 241600Z VRB04KT CAVOK 31/08 Q1013 NOSIG
Loading
Personal Weather Stations






























Interactive Weather Map
Tropical Storm Tracking
New forecast layout! Learn more

10-Day Weather Forecast

Advertisements
Track Severe Weather on mobile